createdAt,value
2023-04-05T00:01:35.733Z,98155.63
2023-04-05T00:04:04.330Z,98147.75
2023-04-05T00:06:32.948Z,98148.69
2023-04-05T00:09:04.077Z,98147.84
2023-04-05T00:11:37.561Z,98135.03
2023-04-05T00:14:05.951Z,98140.38
2023-04-05T00:16:36.313Z,98140.38
2023-04-05T00:19:05.738Z,98136.91
2023-04-05T00:21:42.158Z,98131.84
2023-04-05T00:24:15.407Z,98133.75
2023-04-05T00:26:45.197Z,98128.59
2023-04-05T00:29:13.469Z,98131.31
2023-04-05T00:31:41.802Z,98133.94
2023-04-05T00:34:12.231Z,98127.84
2023-04-05T00:36:40.524Z,98133.09
2023-04-05T00:39:08.851Z,98126.97
2023-04-05T00:41:37.334Z,98127.09
2023-04-05T00:44:07.897Z,98126.47
2023-04-05T00:46:39.040Z,98125.72
2023-04-05T00:49:07.403Z,98124.84
2023-04-05T00:51:42.063Z,98124.03
2023-04-05T00:54:11.669Z,98123.28
2023-04-05T00:56:40.030Z,98117.28
2023-04-05T00:59:09.856Z,98117.47
2023-04-05T01:01:40.385Z,98121.91
2023-04-05T01:04:11.585Z,98116.94
2023-04-05T01:06:54.884Z,98118.91
2023-04-05T01:09:38.975Z,98113.19
2023-04-05T01:12:10.948Z,98111.63
2023-04-05T01:14:50.088Z,98110.03
2023-04-05T01:17:22.244Z,98105.81
2023-04-05T01:19:53.552Z,98109.47
2023-04-05T01:23:00.687Z,98106.22
2023-04-05T01:26:18.714Z,98111.84
2023-04-05T01:29:29.402Z,98103.41
2023-04-05T01:32:08.724Z,98104.66
2023-04-05T01:34:48.060Z,98096.97
2023-04-05T01:37:21.444Z,98095.34
2023-04-05T01:39:51.091Z,98099.88
2023-04-05T01:42:25.735Z,98099.13
2023-04-05T01:44:55.243Z,98094.81
2023-04-05T01:47:25.194Z,98099.31
2023-04-05T01:49:53.489Z,98092.50
2023-04-05T01:52:21.768Z,98092.66
2023-04-05T01:54:50.089Z,98090.97
2023-04-05T01:57:18.389Z,98092.09
2023-04-05T01:59:46.693Z,98095.88
2023-04-05T02:02:14.983Z,98088.19
2023-04-05T02:04:47.438Z,98096.16
2023-04-05T02:07:15.789Z,98092.84
2023-04-05T02:09:44.099Z,98087.78
2023-04-05T02:12:12.394Z,98087.06
2023-04-05T02:14:40.693Z,98082.00
2023-04-05T02:17:09.031Z,98081.53
2023-04-05T02:19:40.998Z,98082.38
2023-04-05T02:22:10.965Z,98085.19
2023-04-05T02:24:39.392Z,98088.72
2023-04-05T02:27:10.052Z,98080.22
2023-04-05T02:29:38.525Z,98085.66
2023-04-05T02:32:07.392Z,98083.13
2023-04-05T02:34:37.064Z,98075.34
2023-04-05T02:37:05.348Z,98082.56
2023-04-05T02:39:36.831Z,98076.63
2023-04-05T02:42:05.378Z,98079.34
2023-04-05T02:44:33.930Z,98071.66
2023-04-05T02:47:05.008Z,98074.41
2023-04-05T02:49:33.291Z,98081.50
2023-04-05T02:52:01.658Z,98078.13
2023-04-05T02:54:29.952Z,98083.47
2023-04-05T02:57:02.387Z,98073.16
2023-04-05T02:59:30.756Z,98077.66
2023-04-05T03:02:01.724Z,98071.84
2023-04-05T03:04:30.104Z,98077.09
2023-04-05T03:06:58.438Z,98071.00
2023-04-05T03:09:27.816Z,98065.94
2023-04-05T03:11:58.983Z,98061.75
2023-04-05T03:14:28.876Z,98068.84
2023-04-05T03:16:57.261Z,98067.31
2023-04-05T03:19:26.215Z,98062.16
2023-04-05T03:21:54.931Z,98053.63
2023-04-05T03:24:23.286Z,98062.44
2023-04-05T03:26:51.654Z,98057.47
2023-04-05T03:29:19.970Z,98060.00
2023-04-05T03:31:51.912Z,98063.63
2023-04-05T03:34:22.200Z,98056.78
2023-04-05T03:36:50.685Z,98052.75
2023-04-05T03:39:19.046Z,98064.00
2023-04-05T03:41:47.326Z,98062.41
2023-04-05T03:44:15.602Z,98066.88
2023-04-05T03:46:44.101Z,98058.25
2023-04-05T03:49:13.774Z,98060.16
2023-04-05T03:51:42.107Z,98055.81
2023-04-05T03:54:10.397Z,98059.47
2023-04-05T03:56:38.734Z,98059.47
2023-04-05T03:59:07.114Z,98061.41
2023-04-05T04:01:37.003Z,98066.00
2023-04-05T04:04:05.973Z,98069.59
2023-04-05T04:06:35.727Z,98071.50
2023-04-05T04:09:05.793Z,98065.50
2023-04-05T04:11:34.129Z,98065.66
2023-04-05T04:14:02.431Z,98060.53
2023-04-05T04:16:31.193Z,98062.47
2023-04-05T04:18:59.515Z,98062.53
2023-04-05T04:21:28.035Z,98065.16
2023-04-05T04:23:57.956Z,98058.34
2023-04-05T04:26:29.263Z,98058.44
2023-04-05T04:28:57.960Z,98061.13
2023-04-05T04:31:26.737Z,98060.34
2023-04-05T04:33:55.517Z,98053.53
2023-04-05T04:36:34.682Z,98059.72
2023-04-05T04:39:06.888Z,98052.97
2023-04-05T04:41:36.058Z,98053.16
2023-04-05T04:44:04.510Z,98053.31
2023-04-05T04:46:42.914Z,98056.03
2023-04-05T04:49:11.444Z,98058.72
2023-04-05T04:51:43.474Z,98055.25
2023-04-05T04:54:13.477Z,98058.81
2023-04-05T04:56:41.755Z,98063.28
2023-04-05T04:59:13.140Z,98053.84
2023-04-05T05:01:41.745Z,98052.13
2023-04-05T05:04:10.097Z,98057.53
2023-04-05T05:06:38.568Z,98061.00
2023-04-05T05:09:09.577Z,98065.47
2023-04-05T05:11:39.258Z,98058.72
2023-04-05T05:14:07.550Z,98067.41
2023-04-05T05:16:36.119Z,98069.19
2023-04-05T05:19:04.428Z,98068.31
2023-04-05T05:21:32.748Z,98075.44
2023-04-05T05:24:01.044Z,98071.88
2023-04-05T05:26:29.343Z,98068.41
2023-04-05T05:29:02.821Z,98070.13
2023-04-05T05:31:33.076Z,98069.25
2023-04-05T05:34:01.489Z,98069.09
2023-04-05T05:36:30.958Z,98068.91
2023-04-05T05:38:59.457Z,98071.53
2023-04-05T05:41:27.710Z,98069.69
2023-04-05T05:43:56.044Z,98067.00
2023-04-05T05:46:26.010Z,98066.81
2023-04-05T05:48:54.326Z,98073.56
2023-04-05T05:51:22.602Z,98076.94
2023-04-05T05:53:51.289Z,98068.94
2023-04-05T05:56:19.640Z,98074.00
2023-04-05T05:58:48.071Z,98075.56
2023-04-05T06:01:16.464Z,98071.19
2023-04-05T06:03:46.716Z,98075.16
2023-04-05T06:06:15.086Z,98076.66
2023-04-05T06:08:46.260Z,98068.53
2023-04-05T06:11:19.992Z,98074.38
2023-04-05T06:13:48.373Z,98068.88
2023-04-05T06:16:16.706Z,98071.97
2023-04-05T06:18:46.550Z,98075.00
2023-04-05T06:21:14.963Z,98070.16
2023-04-05T06:23:43.697Z,98076.56
2023-04-05T06:26:23.077Z,98074.97
2023-04-05T06:28:51.507Z,98075.16
2023-04-05T06:31:22.456Z,98071.88
2023-04-05T06:33:52.117Z,98066.81
2023-04-05T06:36:20.442Z,98064.03
2023-04-05T06:38:48.738Z,98068.44
2023-04-05T06:41:17.097Z,98065.78
2023-04-05T06:43:45.468Z,98069.22
2023-04-05T06:46:14.219Z,98072.69
2023-04-05T06:48:44.236Z,98074.31
2023-04-05T06:51:17.408Z,98067.25
2023-04-05T06:53:45.944Z,98065.41
2023-04-05T06:56:14.362Z,98067.88
2023-04-05T06:58:42.697Z,98065.00
2023-04-05T07:01:11.416Z,98071.94
2023-04-05T07:03:39.808Z,98075.34
2023-04-05T07:06:09.746Z,98070.94
2023-04-05T07:08:39.498Z,98070.09
2023-04-05T07:11:10.909Z,98066.66
2023-04-05T07:13:39.223Z,98071.91
2023-04-05T07:16:08.286Z,98061.38
2023-04-05T07:18:36.586Z,98061.25
2023-04-05T07:21:05.277Z,98059.75
2023-04-05T07:23:33.646Z,98054.69
2023-04-05T07:26:05.751Z,98057.00
2023-04-05T07:28:35.619Z,98057.16
2023-04-05T07:31:05.044Z,98059.13
2023-04-05T07:33:33.928Z,98053.94
2023-04-05T07:36:03.448Z,98057.34
2023-04-05T07:38:31.818Z,98058.25
2023-04-05T07:41:00.131Z,98061.78
2023-04-05T07:43:29.862Z,98054.13
2023-04-05T07:46:03.436Z,98053.00
2023-04-05T07:48:32.338Z,98056.59
2023-04-05T07:51:08.511Z,98059.41
2023-04-05T07:53:37.543Z,98055.88
2023-04-05T07:56:06.537Z,98044.25
2023-04-05T07:58:40.752Z,98050.88
2023-04-05T08:01:15.055Z,98044.28
2023-04-05T08:03:43.989Z,98045.22
2023-04-05T08:06:14.149Z,98053.38
2023-04-05T08:08:42.832Z,98050.44
2023-04-05T08:11:11.354Z,98044.91
2023-04-05T08:13:41.988Z,98046.53
2023-04-05T08:16:11.036Z,98047.09
2023-04-05T08:18:39.983Z,98039.03
2023-04-05T08:21:11.389Z,98047.63
2023-04-05T08:23:39.697Z,98039.59
2023-04-05T08:26:08.336Z,98040.41
2023-04-05T08:28:36.672Z,98041.16
2023-04-05T08:31:06.471Z,98039.16
2023-04-05T08:33:34.948Z,98042.75
2023-04-05T08:36:06.785Z,98033.03
2023-04-05T08:38:35.566Z,98031.97
2023-04-05T08:41:13.400Z,98022.69
2023-04-05T08:44:02.793Z,98026.06
2023-04-05T08:46:34.388Z,98022.63
2023-04-05T08:49:08.201Z,98017.50
2023-04-05T08:51:39.623Z,98021.41
2023-04-05T08:54:08.260Z,98025.88
2023-04-05T08:56:37.614Z,98022.28
2023-04-05T08:59:08.313Z,98019.78
2023-04-05T09:01:42.923Z,98024.22
2023-04-05T09:04:17.915Z,98019.66
2023-04-05T09:06:47.170Z,98020.75
2023-04-05T09:09:16.504Z,98028.28
2023-04-05T09:11:45.470Z,98016.56
2023-04-05T09:14:13.874Z,98020.97
2023-04-05T09:16:44.156Z,98014.53
2023-04-05T09:19:12.499Z,98014.41
2023-04-05T09:22:00.974Z,98005.44
2023-04-05T09:24:35.092Z,98020.94
2023-04-05T09:27:08.635Z,98015.88
2023-04-05T09:29:37.205Z,98015.69
2023-04-05T09:32:08.959Z,98015.13
2023-04-05T09:34:38.016Z,98014.63
2023-04-05T09:37:15.576Z,98009.44
2023-04-05T09:39:45.361Z,98008.47
2023-04-05T09:42:16.054Z,98002.75
2023-04-05T09:44:52.425Z,98009.63
2023-04-05T09:47:31.280Z,98007.97
2023-04-05T09:50:00.190Z,98013.03
2023-04-05T09:52:32.097Z,98013.59
2023-04-05T09:55:06.825Z,98011.34
2023-04-05T09:57:39.474Z,98012.75
2023-04-05T10:00:19.284Z,98010.25
2023-04-05T10:02:54.278Z,98009.41
2023-04-05T10:05:28.188Z,97999.47
2023-04-05T10:07:57.657Z,98003.69
2023-04-05T10:10:26.310Z,97998.94
2023-04-05T10:12:57.893Z,97998.22
2023-04-05T10:15:28.050Z,97997.09
2023-04-05T10:18:04.909Z,97997.09
2023-04-05T10:20:41.419Z,98002.41
2023-04-05T10:23:14.922Z,97992.03
2023-04-05T10:25:55.609Z,97990.44
2023-04-05T10:28:32.975Z,97993.56
2023-04-05T10:31:14.180Z,97994.97
2023-04-05T10:33:48.548Z,97986.53
2023-04-05T10:36:28.632Z,97985.88
2023-04-05T10:39:04.273Z,97984.66
2023-04-05T10:41:38.197Z,97981.41
2023-04-05T10:44:18.878Z,97979.00
2023-04-05T10:46:55.847Z,97975.19
2023-04-05T10:49:35.795Z,97975.66
2023-04-05T10:52:05.158Z,97967.22
2023-04-05T10:54:37.092Z,97966.78
2023-04-05T10:57:10.457Z,97972.53
2023-04-05T10:59:45.383Z,97969.56
2023-04-05T11:02:15.353Z,97971.31
2023-04-05T11:04:45.328Z,97968.03
2023-04-05T11:07:15.996Z,97966.59
2023-04-05T11:09:57.619Z,97960.25
2023-04-05T11:13:10.709Z,97964.72
2023-04-05T11:15:39.892Z,97959.25
2023-04-05T11:18:11.592Z,97946.47
2023-04-05T11:20:51.648Z,97946.53
2023-04-05T11:23:21.815Z,97944.91
2023-04-05T11:25:53.654Z,97944.56
2023-04-05T11:28:27.305Z,97949.31
2023-04-05T11:30:58.912Z,97948.78
2023-04-05T11:33:57.229Z,97942.72
2023-04-05T11:36:38.199Z,97950.13
2023-04-05T11:39:26.573Z,97940.00
2023-04-05T11:42:02.508Z,97930.03
2023-04-05T11:44:34.677Z,97938.44
2023-04-05T11:47:06.197Z,97932.63
2023-04-05T11:49:36.271Z,97933.00
2023-04-05T11:52:14.872Z,97928.50
2023-04-05T11:54:47.089Z,97929.03
2023-04-05T11:57:19.967Z,97922.56
2023-04-05T11:59:48.584Z,97917.53
2023-04-05T12:02:17.534Z,97921.38
2023-04-05T12:04:46.012Z,97922.56
2023-04-05T12:07:18.212Z,97919.22
2023-04-05T12:10:05.063Z,97918.91
2023-04-05T12:12:38.955Z,97927.06
2023-04-05T12:15:10.884Z,97917.38
2023-04-05T12:17:50.804Z,97918.69
2023-04-05T12:20:21.852Z,97919.50
2023-04-05T12:22:54.649Z,97917.31
2023-04-05T12:25:23.473Z,97906.97
2023-04-05T12:27:51.949Z,97907.84
2023-04-05T12:30:22.172Z,97905.84
2023-04-05T12:32:53.713Z,97909.84
2023-04-05T12:35:27.129Z,97904.53
2023-04-05T12:38:03.034Z,97905.03
2023-04-05T12:40:32.926Z,97902.03
2023-04-05T12:43:05.245Z,97898.91
2023-04-05T12:45:40.513Z,97896.88
2023-04-05T12:48:11.818Z,97889.56
2023-04-05T12:50:45.449Z,97889.25
2023-04-05T12:53:21.002Z,97885.09
2023-04-05T12:55:53.763Z,97883.78
2023-04-05T12:58:23.998Z,97886.25
2023-04-05T13:00:52.375Z,97890.09
2023-04-05T13:03:23.800Z,97883.44
2023-04-05T13:05:52.305Z,97885.25
2023-04-05T13:08:22.102Z,97884.06
2023-04-05T13:10:52.300Z,97877.38
2023-04-05T13:13:21.659Z,97872.56
2023-04-05T13:15:52.036Z,97875.59
2023-04-05T13:18:20.801Z,97868.59
2023-04-05T13:20:49.163Z,97868.25
2023-04-05T13:23:17.447Z,97868.72
2023-04-05T13:25:47.179Z,97867.56
2023-04-05T13:28:15.621Z,97860.72
2023-04-05T13:30:44.045Z,97863.56
2023-04-05T13:33:12.392Z,97856.53
2023-04-05T13:35:40.987Z,97856.53
2023-04-05T13:38:09.530Z,97854.69
2023-04-05T13:40:38.023Z,97862.00
2023-04-05T13:43:07.793Z,97843.50
2023-04-05T13:45:37.750Z,97853.84
2023-04-05T13:48:06.220Z,97844.84
2023-04-05T13:50:34.577Z,97840.88
2023-04-05T13:53:02.927Z,97846.19
2023-04-05T13:55:31.304Z,97840.53
2023-04-05T13:58:02.691Z,97845.38
2023-04-05T14:00:32.352Z,97847.38
2023-04-05T14:03:00.739Z,97843.19
2023-04-05T14:05:29.141Z,97845.88
2023-04-05T14:07:57.476Z,97847.06
2023-04-05T14:10:25.776Z,97840.88
2023-04-05T14:12:54.084Z,97838.22
2023-04-05T14:15:22.456Z,97833.22
2023-04-05T14:17:52.312Z,97835.19
2023-04-05T14:20:20.856Z,97832.03
2023-04-05T14:22:49.297Z,97836.69
2023-04-05T14:25:17.825Z,97832.38
2023-04-05T14:27:46.288Z,97829.38
2023-04-05T14:30:15.775Z,97832.69
2023-04-05T14:32:45.268Z,97829.03
2023-04-05T14:35:15.107Z,97821.84
2023-04-05T14:37:43.662Z,97817.69
2023-04-05T14:40:13.052Z,97820.88
2023-04-05T14:42:49.215Z,97817.19
2023-04-05T14:45:18.892Z,97814.38
2023-04-05T14:47:47.450Z,97810.69
2023-04-05T14:50:17.609Z,97810.03
2023-04-05T14:52:46.530Z,97816.34
2023-04-05T14:55:16.477Z,97813.22
2023-04-05T14:57:45.267Z,97812.19
2023-04-05T15:00:18.046Z,97813.03
2023-04-05T15:02:47.500Z,97817.69
2023-04-05T15:05:17.629Z,97818.53
2023-04-05T15:07:46.100Z,97812.53
2023-04-05T15:10:14.631Z,97809.88
2023-04-05T15:12:43.154Z,97816.22
2023-04-05T15:15:12.576Z,97808.84
2023-04-05T15:17:41.335Z,97813.22
2023-04-05T15:20:11.039Z,97793.84
2023-04-05T15:22:41.624Z,97809.38
2023-04-05T15:25:12.051Z,97802.69
2023-04-05T15:27:40.606Z,97801.19
2023-04-05T15:30:10.806Z,97793.34
2023-04-05T15:32:39.378Z,97796.69
2023-04-05T15:35:08.674Z,97795.84
2023-04-05T15:37:37.418Z,97801.88
2023-04-05T15:40:09.265Z,97800.50
2023-04-05T15:42:37.810Z,97797.19
2023-04-05T15:45:07.950Z,97803.34
2023-04-05T15:47:36.830Z,97801.50
2023-04-05T15:50:06.378Z,97796.16
2023-04-05T15:52:36.306Z,97805.63
2023-04-05T15:55:07.347Z,97796.78
2023-04-05T15:57:35.905Z,97805.06
2023-04-05T16:00:05.616Z,97805.72
2023-04-05T16:02:38.107Z,97795.22
2023-04-05T16:05:07.598Z,97798.38
2023-04-05T16:07:36.386Z,97797.34
2023-04-05T16:10:07.741Z,97804.00
2023-04-05T16:12:36.341Z,97802.13
2023-04-05T16:15:05.500Z,97799.44
2023-04-05T16:17:34.197Z,97796.72
2023-04-05T16:20:03.068Z,97802.69
2023-04-05T16:22:35.204Z,97790.19
2023-04-05T16:25:03.804Z,97796.47
2023-04-05T16:27:34.012Z,97797.09
2023-04-05T16:30:05.588Z,97790.56
2023-04-05T16:32:34.120Z,97798.19
2023-04-05T16:35:02.768Z,97801.31
2023-04-05T16:37:31.215Z,97798.44
2023-04-05T16:39:59.767Z,97802.56
2023-04-05T16:42:28.300Z,97797.84
2023-04-05T16:44:58.353Z,97805.44
2023-04-05T16:47:27.168Z,97810.56
2023-04-05T16:49:55.773Z,97796.03
2023-04-05T16:52:24.415Z,97798.34
2023-04-05T16:54:52.979Z,97801.47
2023-04-05T16:57:21.651Z,97801.06
2023-04-05T16:59:50.266Z,97806.16
2023-04-05T17:02:20.342Z,97805.94
2023-04-05T17:04:48.907Z,97805.88
2023-04-05T17:07:17.437Z,97802.00
2023-04-05T17:09:46.097Z,97801.75
2023-04-05T17:12:14.950Z,97803.22
2023-04-05T17:14:43.439Z,97811.47
2023-04-05T17:17:11.942Z,97811.22
2023-04-05T17:19:42.271Z,97819.00
2023-04-05T17:22:10.838Z,97815.13
2023-04-05T17:24:39.568Z,97807.75
2023-04-05T17:27:08.099Z,97806.50
2023-04-05T17:29:36.598Z,97812.41
2023-04-05T17:32:05.157Z,97806.69
2023-04-05T17:34:33.659Z,97810.59
2023-04-05T17:37:03.717Z,97812.34
2023-04-05T17:39:32.145Z,97809.28
2023-04-05T17:42:00.727Z,97816.16
2023-04-05T17:44:30.269Z,97816.88
2023-04-05T17:47:08.366Z,97809.81
2023-04-05T17:49:38.053Z,97820.03
2023-04-05T17:52:08.814Z,97830.53
2023-04-05T17:54:38.118Z,97824.94
2023-04-05T17:57:07.163Z,97828.50
2023-04-05T17:59:36.501Z,97831.72
2023-04-05T18:02:05.145Z,97830.88
2023-04-05T18:04:33.833Z,97828.41
2023-04-05T18:07:02.442Z,97832.84
2023-04-05T18:09:32.400Z,97834.00
2023-04-05T18:12:01.719Z,97837.72
2023-04-05T18:14:30.406Z,97838.69
2023-04-05T18:17:01.955Z,97840.47
2023-04-05T18:19:31.045Z,97847.59
2023-04-05T18:21:59.571Z,97843.25
2023-04-05T18:24:29.508Z,97849.50
2023-04-05T18:27:00.889Z,97852.81
2023-04-05T18:29:30.680Z,97858.09
2023-04-05T18:31:59.301Z,97858.06
2023-04-05T18:34:27.915Z,97858.84
2023-04-05T18:36:56.470Z,97858.84
2023-04-05T18:39:27.371Z,97865.59
2023-04-05T18:41:56.141Z,97875.16
2023-04-05T18:44:26.170Z,97869.84
2023-04-05T18:46:54.873Z,97873.94
2023-04-05T18:49:23.378Z,97877.34
2023-04-05T18:51:51.914Z,97878.84
2023-04-05T18:54:20.429Z,97880.47
2023-04-05T18:56:48.962Z,97879.28
2023-04-05T18:59:17.805Z,97892.19
2023-04-05T19:01:49.167Z,97895.34
2023-04-05T19:04:17.843Z,97893.31
2023-04-05T19:06:46.365Z,97898.25
2023-04-05T19:09:18.242Z,97893.47
2023-04-05T19:11:46.753Z,97896.75
2023-04-05T19:14:16.275Z,97906.75
2023-04-05T19:16:48.951Z,97902.22
2023-04-05T19:19:19.061Z,97901.41
2023-04-05T19:21:47.585Z,97907.69
2023-04-05T19:24:20.918Z,97901.56
2023-04-05T19:26:49.466Z,97910.44
2023-04-05T19:29:18.048Z,97912.13
2023-04-05T19:31:48.177Z,97914.03
2023-04-05T19:34:16.769Z,97906.00
2023-04-05T19:36:45.394Z,97908.41
2023-04-05T19:39:13.942Z,97917.88
2023-04-05T19:41:45.415Z,97913.31
2023-04-05T19:44:14.170Z,97914.00
2023-04-05T19:46:43.010Z,97911.00
2023-04-05T19:49:14.461Z,97910.63
2023-04-05T19:51:43.821Z,97912.78
2023-04-05T19:54:14.847Z,97920.28
2023-04-05T19:56:43.629Z,97917.28
2023-04-05T19:59:30.576Z,97923.03
2023-04-05T20:02:00.460Z,97914.38
2023-04-05T20:04:34.406Z,97925.88
2023-04-05T20:07:03.912Z,97922.41
2023-04-05T20:09:35.156Z,97932.09
2023-04-05T20:12:06.724Z,97925.25
2023-04-05T20:14:43.138Z,97925.59
2023-04-05T20:17:14.599Z,97925.84
2023-04-05T20:19:59.144Z,97918.38
2023-04-05T20:22:30.421Z,97922.09
2023-04-05T20:24:58.849Z,97918.84
2023-04-05T20:27:27.321Z,97923.38
2023-04-05T20:29:56.915Z,97914.03
2023-04-05T20:32:27.753Z,97916.88
2023-04-05T20:34:57.655Z,97919.84
2023-04-05T20:37:26.124Z,97913.16
2023-04-05T20:39:54.540Z,97912.75
2023-04-05T20:42:25.825Z,97913.94
2023-04-05T20:44:54.275Z,97914.25
2023-04-05T20:47:22.786Z,97913.63
2023-04-05T20:49:51.381Z,97916.38
2023-04-05T20:52:21.217Z,97903.44
2023-04-05T20:54:51.223Z,97915.78
2023-04-05T20:57:19.655Z,97909.03
2023-04-05T20:59:48.133Z,97916.22
2023-04-05T21:02:16.587Z,97909.38
2023-04-05T21:04:45.628Z,97914.97
2023-04-05T21:07:14.086Z,97911.72
2023-04-05T21:09:43.928Z,97918.06
2023-04-05T21:12:12.467Z,97929.50
2023-04-05T21:14:40.945Z,97928.69
2023-04-05T21:17:09.469Z,97929.00
2023-04-05T21:19:37.963Z,97921.34
2023-04-05T21:22:06.571Z,97925.97
2023-04-05T21:24:35.130Z,97923.72
2023-04-05T21:27:05.049Z,97924.91
2023-04-05T21:29:33.508Z,97924.50
2023-04-05T21:32:01.954Z,97929.22
2023-04-05T21:34:30.392Z,97927.88
2023-04-05T21:36:58.855Z,97928.94
2023-04-05T21:39:27.294Z,97929.16
2023-04-05T21:41:55.776Z,97928.50
2023-04-05T21:44:25.815Z,97931.34
2023-04-05T21:46:54.297Z,97926.31
2023-04-05T21:49:23.059Z,97927.47
2023-04-05T21:51:51.515Z,97938.09
2023-04-05T21:54:19.957Z,97925.16
2023-04-05T21:56:48.423Z,97929.66
2023-04-05T21:59:17.283Z,97934.09
2023-04-05T22:01:47.286Z,97937.66
2023-04-05T22:04:15.773Z,97934.22
2023-04-05T22:06:44.290Z,97932.50
2023-04-05T22:09:14.937Z,97933.56
2023-04-05T22:11:46.148Z,97931.03
2023-04-05T22:14:14.536Z,97933.78
2023-04-05T22:16:43.144Z,97934.94
2023-04-05T22:19:19.031Z,97929.16
2023-04-05T22:21:47.436Z,97937.97
2023-04-05T22:24:16.175Z,97934.59
2023-04-05T22:26:44.664Z,97934.91
2023-04-05T22:29:17.617Z,97937.75
2023-04-05T22:31:48.791Z,97936.28
2023-04-05T22:34:18.622Z,97934.81
2023-04-05T22:36:47.005Z,97936.69
2023-04-05T22:39:18.145Z,97941.41
2023-04-05T22:41:49.358Z,97942.34
2023-04-05T22:44:17.774Z,97949.47
2023-04-05T22:46:46.226Z,97940.88
2023-04-05T22:49:21.787Z,97941.91
2023-04-05T22:51:50.224Z,97942.09
2023-04-05T22:54:18.645Z,97944.94
2023-04-05T22:56:47.042Z,97939.78
2023-04-05T22:59:16.187Z,97925.09
2023-04-05T23:01:44.816Z,97927.81
2023-04-05T23:04:15.595Z,97936.75
2023-04-05T23:06:45.819Z,97931.59
2023-04-05T23:09:17.546Z,97935.25
2023-04-05T23:11:45.981Z,97933.78
2023-04-05T23:14:14.345Z,97929.59
2023-04-05T23:16:42.954Z,97935.78
2023-04-05T23:19:16.716Z,97928.84
2023-04-05T23:21:46.669Z,97930.63
2023-04-05T23:24:15.090Z,97928.94
2023-04-05T23:26:43.537Z,97933.47
2023-04-05T23:29:15.064Z,97929.13
2023-04-05T23:31:43.542Z,97926.72
2023-04-05T23:34:12.034Z,97930.28
2023-04-05T23:36:40.540Z,97926.19
2023-04-05T23:39:10.660Z,97923.88
2023-04-05T23:41:39.227Z,97924.06
2023-04-05T23:44:08.135Z,97927.81
2023-04-05T23:46:36.619Z,97922.84
2023-04-05T23:49:05.089Z,97925.69
2023-04-05T23:51:33.505Z,97933.84
2023-04-05T23:54:04.736Z,97926.81
2023-04-05T23:56:34.779Z,97922.63
2023-04-05T23:59:11.664Z,97930.69
